createdAt,value
2022-12-26T00:01:13.387Z,17.83
2022-12-26T00:03:40.172Z,15.90
2022-12-26T00:21:58.766Z,18.75
2022-12-26T00:24:25.342Z,17.15
2022-12-26T00:26:51.881Z,16.12
2022-12-26T00:29:18.514Z,17.77
2022-12-26T00:31:45.233Z,19.25
2022-12-26T00:34:36.910Z,15.20
2022-12-26T00:37:03.455Z,19.70
2022-12-26T00:39:29.989Z,20.75
2022-12-26T00:41:56.577Z,19.08
2022-12-26T00:44:38.477Z,21.73
2022-12-26T00:51:05.765Z,19.87
2022-12-26T00:53:33.171Z,19.90
2022-12-26T00:55:59.814Z,20.55
2022-12-26T00:58:27.063Z,22.65
2022-12-26T01:01:20.403Z,20.80
2022-12-26T01:04:15.315Z,21.50
2022-12-26T01:06:42.140Z,20.27
2022-12-26T01:09:12.024Z,21.73
2022-12-26T01:11:41.551Z,20.83
2022-12-26T01:14:12.513Z,20.45
2022-12-26T01:26:15.235Z,22.20
2022-12-26T01:28:46.138Z,20.75
2022-12-26T01:31:12.762Z,22.27
2022-12-26T01:38:49.843Z,22.30
2022-12-26T01:41:17.019Z,26.25
2022-12-26T01:43:49.952Z,20.25
2022-12-26T01:50:33.873Z,25.12
2022-12-26T01:53:09.145Z,24.17
2022-12-26T01:55:37.299Z,24.58
2022-12-26T01:58:10.412Z,24.55
2022-12-26T02:00:37.848Z,23.00
2022-12-26T02:03:51.574Z,26.30
2022-12-26T02:06:21.713Z,25.48
2022-12-26T02:08:48.518Z,25.70
2022-12-26T02:24:40.972Z,27.77
2022-12-26T02:27:25.715Z,27.30
2022-12-26T02:30:07.273Z,27.87
2022-12-26T02:32:42.821Z,27.42
2022-12-26T02:35:37.179Z,29.05
2022-12-26T02:38:34.598Z,33.08
2022-12-26T02:41:29.249Z,31.35
2022-12-26T02:45:12.104Z,35.38
2022-12-26T02:48:35.435Z,34.00
2022-12-26T02:51:43.765Z,35.73
2022-12-26T02:54:41.334Z,35.25
2022-12-26T02:57:32.906Z,33.60
2022-12-26T03:03:58.043Z,36.17
2022-12-26T03:06:50.315Z,33.47
2022-12-26T03:09:40.295Z,36.10
2022-12-26T03:12:49.509Z,33.92
2022-12-26T03:15:19.713Z,35.38
2022-12-26T03:18:14.748Z,39.88
2022-12-26T03:35:36.324Z,34.10
2022-12-26T03:38:15.071Z,32.95
2022-12-26T03:41:12.106Z,33.38
2022-12-26T03:44:10.931Z,33.17
2022-12-26T03:47:45.375Z,32.13
2022-12-26T03:53:35.124Z,35.80
2022-12-26T03:56:37.764Z,36.33
2022-12-26T03:59:49.427Z,32.83
2022-12-26T04:03:04.081Z,36.42
2022-12-26T04:05:49.750Z,34.30
2022-12-26T04:08:42.655Z,35.33
2022-12-26T04:11:35.566Z,32.63
2022-12-26T04:18:33.875Z,35.47
2022-12-26T04:21:48.386Z,31.95
2022-12-26T04:24:52.022Z,32.58
2022-12-26T04:27:40.171Z,35.78
2022-12-26T04:30:26.107Z,33.70
2022-12-26T04:41:40.317Z,35.75
2022-12-26T04:52:11.872Z,39.63
2022-12-26T04:54:42.953Z,42.22
2022-12-26T04:57:11.534Z,42.33
2022-12-26T04:59:38.183Z,37.80
2022-12-26T05:02:45.403Z,40.10
2022-12-26T05:05:30.858Z,41.92
2022-12-26T05:08:23.512Z,41.42
2022-12-26T05:10:50.167Z,43.15
2022-12-26T05:17:34.799Z,39.85
2022-12-26T05:34:04.643Z,32.70
2022-12-26T05:36:36.013Z,39.22
2022-12-26T05:39:03.820Z,37.22
2022-12-26T05:41:30.617Z,39.17
2022-12-26T05:43:57.398Z,38.03
2022-12-26T05:46:54.602Z,35.95
2022-12-26T05:49:49.192Z,33.63
2022-12-26T05:52:34.436Z,38.88
2022-12-26T05:55:01.042Z,37.83
2022-12-26T05:57:27.603Z,37.92
2022-12-26T05:59:54.155Z,38.05
2022-12-26T06:02:20.923Z,35.75
2022-12-26T06:04:47.513Z,40.28
2022-12-26T07:11:21.597Z,35.58
2022-12-26T07:13:48.302Z,36.78
2022-12-26T07:16:15.463Z,38.05
2022-12-26T07:35:43.162Z,35.90
2022-12-26T08:24:21.802Z,43.17
2022-12-26T08:35:00.965Z,41.47
2022-12-26T08:52:16.416Z,43.00
2022-12-26T08:54:44.575Z,44.28
2022-12-26T08:57:12.820Z,46.78
2022-12-26T09:07:44.781Z,48.65
2022-12-26T09:39:24.248Z,46.75
2022-12-26T09:46:16.294Z,45.05
2022-12-26T09:48:58.160Z,41.55
2022-12-26T09:54:21.629Z,42.67
2022-12-26T09:57:02.292Z,44.42
2022-12-26T09:59:34.438Z,42.50
2022-12-26T10:11:11.465Z,44.97
2022-12-26T10:14:08.550Z,44.13
2022-12-26T10:16:55.402Z,42.67
2022-12-26T10:27:49.448Z,42.03
2022-12-26T10:30:39.478Z,40.35
2022-12-26T10:33:17.776Z,42.03
2022-12-26T10:35:46.021Z,43.58
2022-12-26T10:38:55.852Z,43.75
2022-12-26T10:41:48.128Z,42.55
2022-12-26T10:44:16.100Z,41.13
2022-12-26T10:47:29.762Z,43.38
2022-12-26T10:49:59.913Z,41.47
2022-12-26T10:52:49.226Z,40.70
2022-12-26T10:55:28.857Z,41.35
2022-12-26T11:01:49.949Z,44.60
2022-12-26T11:04:53.032Z,42.38
2022-12-26T11:07:17.604Z,41.63
2022-12-26T11:09:45.797Z,37.80
2022-12-26T11:12:40.202Z,39.63
2022-12-26T11:15:31.858Z,38.92
2022-12-26T11:18:25.362Z,38.30
2022-12-26T11:23:33.664Z,32.03
2022-12-26T11:29:42.850Z,36.63
2022-12-26T11:32:19.080Z,43.55
2022-12-26T11:34:48.308Z,46.60
2022-12-26T11:37:29.045Z,48.58
2022-12-26T11:39:57.207Z,45.90
2022-12-26T11:42:26.144Z,45.88
2022-12-26T11:45:23.705Z,51.47
2022-12-26T11:47:50.843Z,44.33
2022-12-26T11:50:21.548Z,51.30
2022-12-26T11:52:52.830Z,44.25
2022-12-26T11:59:28.565Z,46.55
2022-12-26T12:02:17.228Z,40.08
2022-12-26T12:04:46.278Z,43.87
2022-12-26T12:07:34.278Z,43.15
2022-12-26T12:10:13.116Z,46.03
2022-12-26T12:13:11.501Z,42.53
2022-12-26T12:15:57.711Z,43.17
2022-12-26T12:19:21.003Z,43.58
2022-12-26T12:22:08.829Z,49.58
2022-12-26T12:29:12.201Z,40.10
2022-12-26T12:31:46.451Z,39.53
2022-12-26T12:34:34.542Z,42.83
2022-12-26T12:37:25.401Z,39.08
2022-12-26T12:40:22.695Z,34.50
2022-12-26T12:43:50.943Z,38.55
2022-12-26T12:46:54.703Z,34.92
2022-12-26T12:52:21.282Z,34.67
2022-12-26T12:58:24.914Z,33.38
2022-12-26T13:01:02.904Z,33.70
2022-12-26T13:03:38.857Z,34.85
2022-12-26T13:06:46.255Z,30.23
2022-12-26T13:09:15.968Z,32.80
2022-12-26T13:11:49.012Z,30.58
2022-12-26T13:14:59.834Z,32.63
2022-12-26T13:17:48.844Z,28.17
2022-12-26T13:20:22.642Z,32.75
2022-12-26T13:29:49.671Z,30.17
2022-12-26T13:35:49.338Z,27.50
2022-12-26T13:38:15.965Z,27.55
2022-12-26T13:40:47.937Z,29.33
2022-12-26T13:45:56.510Z,31.73
2022-12-26T13:48:32.374Z,29.45
2022-12-26T13:51:04.881Z,31.60
2022-12-26T13:53:33.049Z,31.48
2022-12-26T13:56:46.020Z,33.17
2022-12-26T14:00:14.619Z,33.58
2022-12-26T14:03:19.085Z,32.70
2022-12-26T14:15:19.672Z,34.85
2022-12-26T14:18:46.750Z,32.83
2022-12-26T14:38:28.511Z,45.40
2022-12-26T14:41:03.911Z,49.22
2022-12-26T14:43:37.660Z,43.78
2022-12-26T14:47:19.984Z,44.42
2022-12-26T14:55:45.481Z,42.10
2022-12-26T15:02:06.838Z,46.17
2022-12-26T15:04:46.684Z,50.20
2022-12-26T15:08:01.456Z,53.83
2022-12-26T15:10:50.461Z,56.17
2022-12-26T15:13:37.626Z,61.05
2022-12-26T15:16:48.243Z,57.95
2022-12-26T15:19:52.962Z,57.65
2022-12-26T15:42:12.035Z,60.15
2022-12-26T15:44:57.121Z,58.25
2022-12-26T15:48:13.760Z,64.65
2022-12-26T16:04:38.528Z,59.67
2022-12-26T16:07:46.111Z,58.58
2022-12-26T16:10:27.515Z,61.13
2022-12-26T16:13:22.894Z,59.60
2022-12-26T16:21:24.626Z,70.03
2022-12-26T16:23:53.703Z,69.55
2022-12-26T17:09:07.051Z,70.78
2022-12-26T17:11:36.228Z,68.40
2022-12-26T17:14:05.933Z,71.47
2022-12-26T17:24:25.368Z,75.78
2022-12-26T17:30:20.718Z,69.93
2022-12-26T17:32:48.155Z,71.57
2022-12-26T17:35:26.363Z,77.12
2022-12-26T17:38:00.918Z,78.30
2022-12-26T17:40:33.396Z,67.82
2022-12-26T17:43:12.152Z,62.78
2022-12-26T17:46:03.767Z,67.82
2022-12-26T17:48:31.012Z,68.43
2022-12-26T17:51:04.357Z,72.45
2022-12-26T17:53:43.059Z,69.32
2022-12-26T18:00:28.831Z,78.55
2022-12-26T18:03:12.404Z,73.80
2022-12-26T18:05:40.001Z,79.07
2022-12-26T18:33:29.974Z,80.28
2022-12-26T18:35:56.594Z,75.37
2022-12-26T18:38:23.189Z,78.20
2022-12-26T18:40:54.865Z,76.60
2022-12-26T18:43:21.463Z,78.53
2022-12-26T19:53:03.724Z,85.05
2022-12-26T19:58:56.177Z,75.45
2022-12-26T20:31:33.181Z,82.22
2022-12-26T20:34:00.410Z,86.50
2022-12-26T20:36:29.599Z,83.65
2022-12-26T20:38:59.817Z,80.28
2022-12-26T20:41:28.218Z,89.60
2022-12-26T21:06:32.763Z,65.70
2022-12-26T21:16:58.976Z,47.83
2022-12-26T21:19:28.396Z,49.80
2022-12-26T21:28:47.119Z,47.92
2022-12-26T21:31:13.688Z,51.45
2022-12-26T21:33:44.710Z,54.20
2022-12-26T21:36:13.447Z,47.22
2022-12-26T21:38:40.940Z,45.90
2022-12-26T21:44:08.961Z,41.35
2022-12-26T21:46:35.584Z,43.38
2022-12-26T21:49:02.246Z,46.95
2022-12-26T21:58:01.020Z,47.80
2022-12-26T22:00:27.627Z,41.53
2022-12-26T22:05:57.578Z,45.47
2022-12-26T22:08:24.198Z,42.20
2022-12-26T22:11:35.779Z,42.53
2022-12-26T22:14:02.489Z,43.58
2022-12-26T22:16:30.011Z,42.45
2022-12-26T22:18:56.744Z,41.20
2022-12-26T23:54:30.843Z,75.55
2022-12-26T23:56:58.288Z,70.82
2022-12-26T23:59:47.162Z,76.47
